sensor_id;sensor_type;location;lat;lon;timestamp;pressure;altitude;pressure_sealevel;temperature;humidity
70240;BME280;57629;52.256;10.414;2024-02-21T00:00:38;101371.84;;;17.89;47.75
70240;BME280;57629;52.256;10.414;2024-02-21T00:01:44;101374.50;;;17.89;47.89
70240;BME280;57629;52.256;10.414;2024-02-21T00:02:45;101374.50;;;17.89;47.67
70240;BME280;57629;52.256;10.414;2024-02-21T00:03:45;101369.19;;;17.89;47.90
70240;BME280;57629;52.256;10.414;2024-02-21T00:04:46;101366.53;;;17.89;47.64
70240;BME280;57629;52.256;10.414;2024-02-21T00:05:47;101362.06;;;17.89;47.73
70240;BME280;57629;52.256;10.414;2024-02-21T00:06:47;101362.06;;;17.89;47.82
70240;BME280;57629;52.256;10.414;2024-02-21T00:07:48;101364.72;;;17.89;47.58
70240;BME280;57629;52.256;10.414;2024-02-21T00:08:50;101364.72;;;17.89;47.70
70240;BME280;57629;52.256;10.414;2024-02-21T00:09:51;101358.56;;;17.89;47.44
70240;BME280;57629;52.256;10.414;2024-02-21T00:10:51;101352.44;;;17.88;47.81
70240;BME280;57629;52.256;10.414;2024-02-21T00:11:52;101356.94;;;17.88;47.76
70240;BME280;57629;52.256;10.414;2024-02-21T00:12:53;101356.13;;;17.87;47.72
70240;BME280;57629;52.256;10.414;2024-02-21T00:13:53;101357.13;;;17.86;47.98
70240;BME280;57629;52.256;10.414;2024-02-21T00:14:54;101360.63;;;17.86;47.68
70240;BME280;57629;52.256;10.414;2024-02-21T00:15:56;101360.63;;;17.86;47.68
70240;BME280;57629;52.256;10.414;2024-02-21T00:16:58;101353.47;;;17.87;47.55
70240;BME280;57629;52.256;10.414;2024-02-21T00:17:59;101358.78;;;17.87;47.80
70240;BME280;57629;52.256;10.414;2024-02-21T00:19:00;101364.91;;;17.88;47.81
70240;BME280;57629;52.256;10.414;2024-02-21T00:20:00;101361.44;;;17.87;47.57
70240;BME280;57629;52.256;10.414;2024-02-21T00:21:01;101351.63;;;17.88;47.84
70240;BME280;57629;52.256;10.414;2024-02-21T00:22:02;101350.81;;;17.87;47.35
70240;BME280;57629;52.256;10.414;2024-02-21T00:23:04;101356.13;;;17.87;47.52
70240;BME280;57629;52.256;10.414;2024-02-21T00:24:05;101355.31;;;17.86;47.44
70240;BME280;57629;52.256;10.414;2024-02-21T00:25:08;101354.47;;;17.86;47.58
70240;BME280;57629;52.256;10.414;2024-02-21T00:26:09;101356.94;;;17.88;47.71
70240;BME280;57629;52.256;10.414;2024-02-21T00:27:11;101358.78;;;17.87;47.70
70240;BME280;57629;52.256;10.414;2024-02-21T00:28:12;101361.44;;;17.87;47.90
70240;BME280;57629;52.256;10.414;2024-02-21T00:29:17;101357.97;;;17.86;47.45
70240;BME280;57629;52.256;10.414;2024-02-21T00:30:22;101351.63;;;17.88;47.73
70240;BME280;57629;52.256;10.414;2024-02-21T00:31:24;101345.50;;;17.87;47.98
70240;BME280;57629;52.256;10.414;2024-02-21T00:32:30;101350.81;;;17.87;47.57
70240;BME280;57629;52.256;10.414;2024-02-21T00:33:31;101347.34;;;17.86;47.68
70240;BME280;57629;52.256;10.414;2024-02-21T00:34:34;101342.84;;;17.87;47.52
70240;BME280;57629;52.256;10.414;2024-02-21T00:35:35;101343.66;;;17.88;47.96
70240;BME280;57629;52.256;10.414;2024-02-21T00:36:36;101341.00;;;17.88;47.65
70240;BME280;57629;52.256;10.414;2024-02-21T00:37:37;101339.38;;;17.86;47.74
70240;BME280;57629;52.256;10.414;2024-02-21T00:38:38;101339.38;;;17.86;47.89
70240;BME280;57629;52.256;10.414;2024-02-21T00:39:38;101339.31;;;17.93;47.71
70240;BME280;57629;52.256;10.414;2024-02-21T00:40:39;101340.34;;;17.99;47.79
70240;BME280;57629;52.256;10.414;2024-02-21T00:41:40;101342.78;;;18.00;47.66
70240;BME280;57629;52.256;10.414;2024-02-21T00:42:40;101335.84;;;17.99;48.02
70240;BME280;57629;52.256;10.414;2024-02-21T00:43:45;101336.03;;;17.98;48.03
70240;BME280;57629;52.256;10.414;2024-02-21T00:44:46;101343.19;;;17.97;48.00
70240;BME280;57629;52.256;10.414;2024-02-21T00:45:47;101338.94;;;17.96;47.60
70240;BME280;57629;52.256;10.414;2024-02-21T00:46:48;101339.94;;;17.95;47.98
70240;BME280;57629;52.256;10.414;2024-02-21T00:47:50;101338.09;;;17.96;48.04
70240;BME280;57629;52.256;10.414;2024-02-21T00:48:50;101340.97;;;17.94;48.27
70240;BME280;57629;52.256;10.414;2024-02-21T00:49:51;101333.00;;;17.94;48.37
70240;BME280;57629;52.256;10.414;2024-02-21T00:50:52;101334.84;;;17.94;48.49
70240;BME280;57629;52.256;10.414;2024-02-21T00:51:53;101332.41;;;17.92;48.57
70240;BME280;57629;52.256;10.414;2024-02-21T00:52:53;101330.53;;;17.93;48.61
70240;BME280;57629;52.256;10.414;2024-02-21T00:53:54;101328.94;;;17.92;48.35
70240;BME280;57629;52.256;10.414;2024-02-21T00:54:55;101328.09;;;17.91;48.42
70240;BME280;57629;52.256;10.414;2024-02-21T00:55:55;101335.25;;;17.91;48.37
70240;BME280;57629;52.256;10.414;2024-02-21T00:56:56;101327.50;;;17.89;48.26
70240;BME280;57629;52.256;10.414;2024-02-21T00:57:58;101323.00;;;17.90;48.42
70240;BME280;57629;52.256;10.414;2024-02-21T00:58:58;101319.53;;;17.89;48.67
70240;BME280;57629;52.256;10.414;2024-02-21T00:59:59;101309.72;;;17.90;48.54
70240;BME280;57629;52.256;10.414;2024-02-21T01:01:00;101322.78;;;17.91;48.64
70240;BME280;57629;52.256;10.414;2024-02-21T01:02:01;101306.25;;;17.89;48.34
70240;BME280;57629;52.256;10.414;2024-02-21T01:03:04;101321.97;;;17.91;48.20
70240;BME280;57629;52.256;10.414;2024-02-21T01:04:06;101315.03;;;17.90;48.37
70240;BME280;57629;52.256;10.414;2024-02-21T01:05:07;101321.16;;;17.90;48.37
70240;BME280;57629;52.256;10.414;2024-02-21T01:06:08;101311.56;;;17.89;48.51
70240;BME280;57629;52.256;10.414;2024-02-21T01:07:12;101318.69;;;17.89;48.60
70240;BME280;57629;52.256;10.414;2024-02-21T01:08:17;101314.22;;;17.89;48.33
70240;BME280;57629;52.256;10.414;2024-02-21T01:09:18;101310.72;;;17.89;48.43
70240;BME280;57629;52.256;10.414;2024-02-21T01:10:25;101308.91;;;17.89;48.26
70240;BME280;57629;52.256;10.414;2024-02-21T01:11:29;101306.25;;;17.89;48.10
70240;BME280;57629;52.256;10.414;2024-02-21T01:12:30;101309.72;;;17.90;48.25
70240;BME280;57629;52.256;10.414;2024-02-21T01:13:32;101309.72;;;17.90;48.05
70240;BME280;57629;52.256;10.414;2024-02-21T01:14:33;101304.41;;;17.90;48.22
70240;BME280;57629;52.256;10.414;2024-02-21T01:15:37;101304.19;;;17.91;48.02
70240;BME280;57629;52.256;10.414;2024-02-21T01:16:38;101308.69;;;17.91;48.22
70240;BME280;57629;52.256;10.414;2024-02-21T01:17:39;101306.25;;;17.89;48.26
70240;BME280;57629;52.256;10.414;2024-02-21T01:18:41;101301.75;;;17.90;48.40
70240;BME280;57629;52.256;10.414;2024-02-21T01:19:41;101301.94;;;17.88;48.08
70240;BME280;57629;52.256;10.414;2024-02-21T01:20:42;101299.09;;;17.90;48.45
70240;BME280;57629;52.256;10.414;2024-02-21T01:21:43;101308.91;;;17.89;47.94
70240;BME280;57629;52.256;10.414;2024-02-21T01:22:44;101303.59;;;17.89;48.11
70240;BME280;57629;52.256;10.414;2024-02-21T01:23:44;101303.59;;;17.89;48.42
70240;BME280;57629;52.256;10.414;2024-02-21T01:24:45;101301.75;;;17.90;48.13
70240;BME280;57629;52.256;10.414;2024-02-21T01:25:46;101297.44;;;17.89;48.48
70240;BME280;57629;52.256;10.414;2024-02-21T01:26:47;101294.78;;;17.89;47.89
70240;BME280;57629;52.256;10.414;2024-02-21T01:27:48;101296.63;;;17.88;48.17
70240;BME280;57629;52.256;10.414;2024-02-21T01:28:48;101297.69;;;17.87;48.24
70240;BME280;57629;52.256;10.414;2024-02-21T01:29:50;101296.63;;;17.88;48.34
70240;BME280;57629;52.256;10.414;2024-02-21T01:30:51;101290.50;;;17.88;48.10
70240;BME280;57629;52.256;10.414;2024-02-21T01:31:51;101295.81;;;17.88;48.20
70240;BME280;57629;52.256;10.414;2024-02-21T01:32:52;101289.72;;;17.87;48.36
70240;BME280;57629;52.256;10.414;2024-02-21T01:33:54;101282.53;;;17.88;48.11
70240;BME280;57629;52.256;10.414;2024-02-21T01:34:55;101283.59;;;17.86;48.04
70240;BME280;57629;52.256;10.414;2024-02-21T01:35:56;101288.66;;;17.88;48.18
70240;BME280;57629;52.256;10.414;2024-02-21T01:36:57;101288.66;;;17.88;47.81
70240;BME280;57629;52.256;10.414;2024-02-21T01:37:58;101281.72;;;17.87;48.17
70240;BME280;57629;52.256;10.414;2024-02-21T01:38:58;101293.16;;;17.88;48.12
70240;BME280;57629;52.256;10.414;2024-02-21T01:39:59;101293.16;;;17.88;48.06
70240;BME280;57629;52.256;10.414;2024-02-21T01:41:00;101281.72;;;17.87;48.15
70240;BME280;57629;52.256;10.414;2024-02-21T01:42:01;101281.72;;;17.87;48.12
70240;BME280;57629;52.256;10.414;2024-02-21T01:43:01;101275.63;;;17.86;47.97
70240;BME280;57629;52.256;10.414;2024-02-21T01:44:04;101278.03;;;17.88;48.14
70240;BME280;57629;52.256;10.414;2024-02-21T01:45:05;101268.44;;;17.87;48.03
70240;BME280;57629;52.256;10.414;2024-02-21T01:46:08;101264.16;;;17.86;48.12
70240;BME280;57629;52.256;10.414;2024-02-21T01:47:10;101275.63;;;17.86;48.20
70240;BME280;57629;52.256;10.414;2024-02-21T01:48:16;101267.63;;;17.86;48.09
70240;BME280;57629;52.256;10.414;2024-02-21T01:49:28;101272.13;;;17.86;47.91
70240;BME280;57629;52.256;10.414;2024-02-21T01:50:29;101281.94;;;17.85;48.29
70240;BME280;57629;52.256;10.414;2024-02-21T01:51:30;101273.97;;;17.85;48.21
70240;BME280;57629;52.256;10.414;2024-02-21T01:52:34;101279.28;;;17.85;48.23
70240;BME280;57629;52.256;10.414;2024-02-21T01:53:37;101280.94;;;17.86;48.38
70240;BME280;57629;52.256;10.414;2024-02-21T01:54:40;101263.34;;;17.85;48.24
70240;BME280;57629;52.256;10.414;2024-02-21T01:55:42;101268.66;;;17.85;48.39
70240;BME280;57629;52.256;10.414;2024-02-21T01:56:44;101262.53;;;17.85;48.31
70240;BME280;57629;52.256;10.414;2024-02-21T01:57:46;101270.31;;;17.86;47.97
70240;BME280;57629;52.256;10.414;2024-02-21T01:58:48;101278.28;;;17.86;48.11
70240;BME280;57629;52.256;10.414;2024-02-21T01:59:49;101266.81;;;17.86;47.86
70240;BME280;57629;52.256;10.414;2024-02-21T02:00:50;101260.69;;;17.85;48.06
70240;BME280;57629;52.256;10.414;2024-02-21T02:01:52;101261.50;;;17.86;47.97
70240;BME280;57629;52.256;10.414;2024-02-21T02:02:53;101261.50;;;17.86;48.04
70240;BME280;57629;52.256;10.414;2024-02-21T02:03:55;101259.66;;;17.86;48.27
70240;BME280;57629;52.256;10.414;2024-02-21T02:04:57;101264.97;;;17.86;48.15
70240;BME280;57629;52.256;10.414;2024-02-21T02:05:58;101255.38;;;17.85;48.08
70240;BME280;57629;52.256;10.414;2024-02-21T02:06:59;101260.69;;;17.85;47.94
70240;BME280;57629;52.256;10.414;2024-02-21T02:08:00;101260.47;;;17.87;48.15
70240;BME280;57629;52.256;10.414;2024-02-21T02:09:01;101255.16;;;17.87;47.90
70240;BME280;57629;52.256;10.414;2024-02-21T02:10:03;101252.50;;;17.87;48.04
70240;BME280;57629;52.256;10.414;2024-02-21T02:11:04;101252.50;;;17.87;48.03
70240;BME280;57629;52.256;10.414;2024-02-21T02:12:05;101249.03;;;17.86;48.07
70240;BME280;57629;52.256;10.414;2024-02-21T02:13:08;101241.88;;;17.87;48.15
70240;BME280;57629;52.256;10.414;2024-02-21T02:14:09;101251.69;;;17.86;47.91
70240;BME280;57629;52.256;10.414;2024-02-21T02:15:13;101242.09;;;17.85;47.90
70240;BME280;57629;52.256;10.414;2024-02-21T02:16:15;101241.06;;;17.86;48.00
70240;BME280;57629;52.256;10.414;2024-02-21T02:17:21;101240.22;;;17.86;48.12
70240;BME280;57629;52.256;10.414;2024-02-21T02:18:22;101241.88;;;17.87;47.99
70240;BME280;57629;52.256;10.414;2024-02-21T02:19:27;101247.19;;;17.87;48.11
70240;BME280;57629;52.256;10.414;2024-02-21T02:20:31;101239.22;;;17.87;47.98
70240;BME280;57629;52.256;10.414;2024-02-21T02:21:34;101241.88;;;17.87;48.17
70240;BME280;57629;52.256;10.414;2024-02-21T02:22:43;101234.72;;;17.88;48.05
70240;BME280;57629;52.256;10.414;2024-02-21T02:23:47;101235.75;;;17.86;48.17
70240;BME280;57629;52.256;10.414;2024-02-21T02:24:48;101232.25;;;17.86;48.01
70240;BME280;57629;52.256;10.414;2024-02-21T02:25:50;101229.59;;;17.86;48.07
70240;BME280;57629;52.256;10.414;2024-02-21T02:26:51;101228.78;;;17.85;48.04
70240;BME280;57629;52.256;10.414;2024-02-21T02:27:52;101226.94;;;17.86;48.11
70240;BME280;57629;52.256;10.414;2024-02-21T02:28:53;101221.63;;;17.86;47.96
70240;BME280;57629;52.256;10.414;2024-02-21T02:29:55;101221.63;;;17.86;47.97
70240;BME280;57629;52.256;10.414;2024-02-21T02:30:56;101221.44;;;17.88;47.99
70240;BME280;57629;52.256;10.414;2024-02-21T02:31:57;101217.16;;;17.86;48.40
70240;BME280;57629;52.256;10.414;2024-02-21T02:32:57;101230.44;;;17.86;47.98
70240;BME280;57629;52.256;10.414;2024-02-21T02:33:58;101220.63;;;17.87;47.87
70240;BME280;57629;52.256;10.414;2024-02-21T02:34:58;101217.97;;;17.87;47.69
70240;BME280;57629;52.256;10.414;2024-02-21T02:35:59;101214.50;;;17.86;47.97
70240;BME280;57629;52.256;10.414;2024-02-21T02:37:00;101212.84;;;17.85;48.08
70240;BME280;57629;52.256;10.414;2024-02-21T02:38:01;101213.66;;;17.86;47.92
70240;BME280;57629;52.256;10.414;2024-02-21T02:39:03;101204.06;;;17.85;48.16
70240;BME280;57629;52.256;10.414;2024-02-21T02:40:06;101205.69;;;17.86;48.04
70240;BME280;57629;52.256;10.414;2024-02-21T02:41:07;101208.34;;;17.86;48.06
70240;BME280;57629;52.256;10.414;2024-02-21T02:42:07;101206.53;;;17.86;48.01
70240;BME280;57629;52.256;10.414;2024-02-21T02:43:10;101205.69;;;17.86;48.04
70240;BME280;57629;52.256;10.414;2024-02-21T02:44:11;101202.22;;;17.85;48.24
70240;BME280;57629;52.256;10.414;2024-02-21T02:45:22;101203.88;;;17.86;47.74
70240;BME280;57629;52.256;10.414;2024-02-21T02:46:30;101196.91;;;17.85;48.09
70240;BME280;57629;52.256;10.414;2024-02-21T02:47:31;101201.41;;;17.85;48.08
70240;BME280;57629;52.256;10.414;2024-02-21T02:48:35;101190.78;;;17.85;48.09
70240;BME280;57629;52.256;10.414;2024-02-21T02:49:36;101197.94;;;17.84;48.37
70240;BME280;57629;52.256;10.414;2024-02-21T02:50:41;101189.97;;;17.84;48.18
70240;BME280;57629;52.256;10.414;2024-02-21T02:51:42;101188.13;;;17.85;47.91
70240;BME280;57629;52.256;10.414;2024-02-21T02:52:43;101179.13;;;17.86;48.13
70240;BME280;57629;52.256;10.414;2024-02-21T02:53:44;101175.66;;;17.85;48.01
70240;BME280;57629;52.256;10.414;2024-02-21T02:54:46;101177.50;;;17.85;47.78
70240;BME280;57629;52.256;10.414;2024-02-21T02:55:47;101176.69;;;17.84;47.86
70240;BME280;57629;52.256;10.414;2024-02-21T02:56:47;101173.25;;;17.84;47.87
70240;BME280;57629;52.256;10.414;2024-02-21T02:57:51;101168.72;;;17.84;48.08
70240;BME280;57629;52.256;10.414;2024-02-21T02:58:52;101166.06;;;17.84;48.06
70240;BME280;57629;52.256;10.414;2024-02-21T02:59:53;101166.06;;;17.84;48.21
70240;BME280;57629;52.256;10.414;2024-02-21T03:00:54;101173.00;;;17.85;47.96
70240;BME280;57629;52.256;10.414;2024-02-21T03:01:54;101172.19;;;17.85;48.08
70240;BME280;57629;52.256;10.414;2024-02-21T03:02:55;101168.50;;;17.86;48.09
70240;BME280;57629;52.256;10.414;2024-02-21T03:03:56;101171.38;;;17.84;47.92
70240;BME280;57629;52.256;10.414;2024-02-21T03:04:56;101171.38;;;17.84;48.13
70240;BME280;57629;52.256;10.414;2024-02-21T03:05:57;101166.06;;;17.84;48.17
70240;BME280;57629;52.256;10.414;2024-02-21T03:06:58;101166.88;;;17.85;48.12
70240;BME280;57629;52.256;10.414;2024-02-21T03:07:58;101162.59;;;17.84;48.02
70240;BME280;57629;52.256;10.414;2024-02-21T03:09:00;101156.47;;;17.83;47.91
70240;BME280;57629;52.256;10.414;2024-02-21T03:10:03;101157.06;;;17.85;48.12
70240;BME280;57629;52.256;10.414;2024-02-21T03:11:05;101148.28;;;17.85;47.86
70240;BME280;57629;52.256;10.414;2024-02-21T03:12:06;101150.13;;;17.84;48.08
70240;BME280;57629;52.256;10.414;2024-02-21T03:13:09;101141.34;;;17.84;47.90
70240;BME280;57629;52.256;10.414;2024-02-21T03:14:10;101151.75;;;17.85;48.01
70240;BME280;57629;52.256;10.414;2024-02-21T03:15:12;101139.50;;;17.84;47.95
70240;BME280;57629;52.256;10.414;2024-02-21T03:16:18;101139.50;;;17.84;47.98
70240;BME280;57629;52.256;10.414;2024-02-21T03:17:22;101141.34;;;17.84;48.38
70240;BME280;57629;52.256;10.414;2024-02-21T03:18:23;101139.50;;;17.84;47.90
70240;BME280;57629;52.256;10.414;2024-02-21T03:19:28;101141.94;;;17.86;47.97
70240;BME280;57629;52.256;10.414;2024-02-21T03:20:30;101130.50;;;17.85;47.69
70240;BME280;57629;52.256;10.414;2024-02-21T03:21:34;101137.66;;;17.85;48.22
70240;BME280;57629;52.256;10.414;2024-02-21T03:22:34;101129.88;;;17.83;47.79
70240;BME280;57629;52.256;10.414;2024-02-21T03:23:37;101120.09;;;17.84;48.17
70240;BME280;57629;52.256;10.414;2024-02-21T03:24:38;101135.00;;;17.85;47.85
70240;BME280;57629;52.256;10.414;2024-02-21T03:25:40;101128.06;;;17.84;48.02
70240;BME280;57629;52.256;10.414;2024-02-21T03:26:40;101136.84;;;17.84;47.86
70240;BME280;57629;52.256;10.414;2024-02-21T03:27:41;101128.88;;;17.84;47.83
70240;BME280;57629;52.256;10.414;2024-02-21T03:28:42;101126.22;;;17.84;48.03
70240;BME280;57629;52.256;10.414;2024-02-21T03:29:43;101125.41;;;17.84;48.18
70240;BME280;57629;52.256;10.414;2024-02-21T03:30:44;101120.91;;;17.84;47.84
70240;BME280;57629;52.256;10.414;2024-02-21T03:31:45;101120.91;;;17.84;47.98
70240;BME280;57629;52.256;10.414;2024-02-21T03:32:46;101121.72;;;17.85;47.97
70240;BME280;57629;52.256;10.414;2024-02-21T03:33:46;101125.41;;;17.84;47.90
70240;BME280;57629;52.256;10.414;2024-02-21T03:34:47;101117.44;;;17.84;48.00
70240;BME280;57629;52.256;10.414;2024-02-21T03:35:48;101115.59;;;17.84;47.78
70240;BME280;57629;52.256;10.414;2024-02-21T03:36:49;101109.47;;;17.84;48.10
70240;BME280;57629;52.256;10.414;2024-02-21T03:37:50;101110.28;;;17.84;47.98
70240;BME280;57629;52.256;10.414;2024-02-21T03:38:50;101104.16;;;17.84;47.94
70240;BME280;57629;52.256;10.414;2024-02-21T03:39:51;101103.31;;;17.83;47.94
70240;BME280;57629;52.256;10.414;2024-02-21T03:40:53;101105.78;;;17.85;47.86
70240;BME280;57629;52.256;10.414;2024-02-21T03:41:54;101097.00;;;17.84;47.95
70240;BME280;57629;52.256;10.414;2024-02-21T03:42:54;101102.31;;;17.84;47.93
70240;BME280;57629;52.256;10.414;2024-02-21T03:43:56;101096.19;;;17.84;47.91
70240;BME280;57629;52.256;10.414;2024-02-21T03:44:57;101096.19;;;17.84;47.83
70240;BME280;57629;52.256;10.414;2024-02-21T03:45:58;101101.50;;;17.84;48.03
70240;BME280;57629;52.256;10.414;2024-02-21T03:46:59;101092.50;;;17.85;47.74
70240;BME280;57629;52.256;10.414;2024-02-21T03:47:59;101093.53;;;17.84;47.98
70240;BME280;57629;52.256;10.414;2024-02-21T03:49:00;101088.22;;;17.84;47.62
70240;BME280;57629;52.256;10.414;2024-02-21T03:50:01;101087.38;;;17.83;48.00
70240;BME280;57629;52.256;10.414;2024-02-21T03:51:04;101082.06;;;17.83;47.82
70240;BME280;57629;52.256;10.414;2024-02-21T03:52:07;101083.91;;;17.83;47.78
70240;BME280;57629;52.256;10.414;2024-02-21T03:53:08;101075.94;;;17.83;47.85
70240;BME280;57629;52.256;10.414;2024-02-21T03:54:09;101067.97;;;17.83;47.87
70240;BME280;57629;52.256;10.414;2024-02-21T03:55:13;101074.34;;;17.82;47.87
70240;BME280;57629;52.256;10.414;2024-02-21T03:56:24;101069.63;;;17.84;48.03
70240;BME280;57629;52.256;10.414;2024-02-21T03:57:25;101066.38;;;17.82;48.01
70240;BME280;57629;52.256;10.414;2024-02-21T03:58:29;101062.66;;;17.83;47.93
70240;BME280;57629;52.256;10.414;2024-02-21T03:59:42;101060.00;;;17.83;47.79
70240;BME280;57629;52.256;10.414;2024-02-21T04:00:42;101055.50;;;17.83;47.70
70240;BME280;57629;52.256;10.414;2024-02-21T04:01:45;101054.69;;;17.83;47.73
70240;BME280;57629;52.256;10.414;2024-02-21T04:02:46;101048.56;;;17.82;47.72
70240;BME280;57629;52.256;10.414;2024-02-21T04:03:47;101052.84;;;17.83;47.99
70240;BME280;57629;52.256;10.414;2024-02-21T04:04:48;101046.72;;;17.83;47.83
70240;BME280;57629;52.256;10.414;2024-02-21T04:05:49;101046.72;;;17.83;47.90
70240;BME280;57629;52.256;10.414;2024-02-21T04:06:50;101042.22;;;17.83;47.79
70240;BME280;57629;52.256;10.414;2024-02-21T04:07:51;101048.38;;;17.84;47.64
70240;BME280;57629;52.256;10.414;2024-02-21T04:08:53;101044.88;;;17.83;47.87
70240;BME280;57629;52.256;10.414;2024-02-21T04:09:54;101041.41;;;17.83;48.03
70240;BME280;57629;52.256;10.414;2024-02-21T04:10:55;101044.06;;;17.83;47.93
70240;BME280;57629;52.256;10.414;2024-02-21T04:11:57;101044.88;;;17.83;47.86
70240;BME280;57629;52.256;10.414;2024-02-21T04:12:58;101050.19;;;17.83;47.78
70240;BME280;57629;52.256;10.414;2024-02-21T04:13:59;101052.84;;;17.83;47.68
70240;BME280;57629;52.256;10.414;2024-02-21T04:14:59;101054.69;;;17.83;47.94
70240;BME280;57629;52.256;10.414;2024-02-21T04:16:01;101062.66;;;17.83;47.70
70240;BME280;57629;52.256;10.414;2024-02-21T04:17:03;101061.66;;;17.84;47.66
70240;BME280;57629;52.256;10.414;2024-02-21T04:18:05;101060.81;;;17.83;47.95
70240;BME280;57629;52.256;10.414;2024-02-21T04:19:07;101063.47;;;17.83;47.98
70240;BME280;57629;52.256;10.414;2024-02-21T04:20:14;101062.66;;;17.83;47.91
70240;BME280;57629;52.256;10.414;2024-02-21T04:21:23;101065.31;;;17.83;47.90
70240;BME280;57629;52.256;10.414;2024-02-21T04:22:34;101062.66;;;17.83;47.86
70240;BME280;57629;52.256;10.414;2024-02-21T04:23:35;101060.81;;;17.83;47.95
70240;BME280;57629;52.256;10.414;2024-02-21T04:24:36;101065.31;;;17.83;47.70
70240;BME280;57629;52.256;10.414;2024-02-21T04:25:37;101074.09;;;17.83;48.10
70240;BME280;57629;52.256;10.414;2024-02-21T04:26:38;101065.13;;;17.84;47.64
70240;BME280;57629;52.256;10.414;2024-02-21T04:27:40;101062.66;;;17.83;47.93
70240;BME280;57629;52.256;10.414;2024-02-21T04:28:41;101073.28;;;17.83;47.79
70240;BME280;57629;52.256;10.414;2024-02-21T04:29:41;101057.34;;;17.83;47.86
70240;BME280;57629;52.256;10.414;2024-02-21T04:30:42;101064.31;;;17.84;47.78
70240;BME280;57629;52.256;10.414;2024-02-21T04:31:43;101063.47;;;17.83;47.44
70240;BME280;57629;52.256;10.414;2024-02-21T04:32:44;101072.47;;;17.82;47.87
70240;BME280;57629;52.256;10.414;2024-02-21T04:33:45;101082.06;;;17.83;48.23
70240;BME280;57629;52.256;10.414;2024-02-21T04:34:46;101086.56;;;17.83;48.01
70240;BME280;57629;52.256;10.414;2024-02-21T04:35:47;101091.88;;;17.83;47.64
70240;BME280;57629;52.256;10.414;2024-02-21T04:36:47;101092.69;;;17.83;47.85
70240;BME280;57629;52.256;10.414;2024-02-21T04:37:49;101095.16;;;17.85;47.81
70240;BME280;57629;52.256;10.414;2024-02-21T04:38:50;101083.13;;;17.82;47.58
70240;BME280;57629;52.256;10.414;2024-02-21T04:39:51;101090.03;;;17.83;47.71
70240;BME280;57629;52.256;10.414;2024-02-21T04:40:51;101090.03;;;17.83;47.80
70240;BME280;57629;52.256;10.414;2024-02-21T04:41:52;101092.69;;;17.83;47.69
70240;BME280;57629;52.256;10.414;2024-02-21T04:42:54;101091.88;;;17.83;47.76
70240;BME280;57629;52.256;10.414;2024-02-21T04:43:55;101089.22;;;17.83;47.76
70240;BME280;57629;52.256;10.414;2024-02-21T04:44:56;101091.88;;;17.83;47.61
70240;BME280;57629;52.256;10.414;2024-02-21T04:45:57;101087.38;;;17.83;48.05
70240;BME280;57629;52.256;10.414;2024-02-21T04:46:57;101083.13;;;17.82;48.09
70240;BME280;57629;52.256;10.414;2024-02-21T04:47:58;101081.25;;;17.83;47.80
70240;BME280;57629;52.256;10.414;2024-02-21T04:48:59;101077.78;;;17.82;47.57
70240;BME280;57629;52.256;10.414;2024-02-21T04:49:59;101077.00;;;17.82;47.80
70240;BME280;57629;52.256;10.414;2024-02-21T04:51:02;101082.31;;;17.82;47.63
70240;BME280;57629;52.256;10.414;2024-02-21T04:52:04;101083.13;;;17.82;47.77
70240;BME280;57629;52.256;10.414;2024-02-21T04:53:05;101089.22;;;17.83;48.08
70240;BME280;57629;52.256;10.414;2024-02-21T04:54:05;101083.13;;;17.82;47.69
70240;BME280;57629;52.256;10.414;2024-02-21T04:55:09;101083.72;;;17.84;47.88
70240;BME280;57629;52.256;10.414;2024-02-21T04:56:13;101067.97;;;17.83;47.69
70240;BME280;57629;52.256;10.414;2024-02-21T04:57:20;101069.81;;;17.82;48.27
70240;BME280;57629;52.256;10.414;2024-02-21T04:58:22;101074.34;;;17.82;47.96
70240;BME280;57629;52.256;10.414;2024-02-21T04:59:27;101078.59;;;17.83;47.45
70240;BME280;57629;52.256;10.414;2024-02-21T05:00:31;101078.84;;;17.81;47.86
70240;BME280;57629;52.256;10.414;2024-02-21T05:01:37;101079.84;;;17.80;47.78
70240;BME280;57629;52.256;10.414;2024-02-21T05:02:39;101072.91;;;17.79;47.70
70240;BME280;57629;52.256;10.414;2024-02-21T05:03:39;101077.19;;;17.80;47.85
70240;BME280;57629;52.256;10.414;2024-02-21T05:04:50;101079.84;;;17.80;47.75
70240;BME280;57629;52.256;10.414;2024-02-21T05:05:51;101081.50;;;17.81;47.63
70240;BME280;57629;52.256;10.414;2024-02-21T05:06:52;101084.38;;;17.80;47.85
70240;BME280;57629;52.256;10.414;2024-02-21T05:07:52;101080.88;;;17.79;47.96
70240;BME280;57629;52.256;10.414;2024-02-21T05:08:53;101085.16;;;17.80;47.92
70240;BME280;57629;52.256;10.414;2024-02-21T05:09:54;101086.81;;;17.81;47.80
70240;BME280;57629;52.256;10.414;2024-02-21T05:10:55;101088.44;;;17.82;47.77
70240;BME280;57629;52.256;10.414;2024-02-21T05:11:55;101092.13;;;17.81;47.97
70240;BME280;57629;52.256;10.414;2024-02-21T05:12:57;101099.25;;;17.81;47.72
70240;BME280;57629;52.256;10.414;2024-02-21T05:13:59;101094.78;;;17.81;47.56
70240;BME280;57629;52.256;10.414;2024-02-21T05:15:00;101097.44;;;17.81;47.68
70240;BME280;57629;52.256;10.414;2024-02-21T05:16:02;101094.78;;;17.81;47.62
70240;BME280;57629;52.256;10.414;2024-02-21T05:17:04;101095.78;;;17.80;47.56
70240;BME280;57629;52.256;10.414;2024-02-21T05:18:05;101086.81;;;17.81;47.77
70240;BME280;57629;52.256;10.414;2024-02-21T05:19:08;101092.13;;;17.81;47.77